http://www.schuttertalwetter.de (Christian Eisenberg)
Wetterdaten: aktuell Sonntag, 19.09.2021 09:45
Datum Zeit Temp. A. Luftdruck Regen Wind Richtung Richtung Sonnenschein Solar Windben
19.09.2021 09:45 14,6 C 1013,6 hPa 0,0 l/m 0,0 km/h (0 Bft) N 0 35 min 220 W/m 0,0 km/h (0 Bft)
19.09.2021 08:45 11,4 C 1013,5 hPa 0,0 l/m 1,6 km/h (1 Bft) SO 135 0 min 114 W/m 4,8 km/h (1 Bft)
19.09.2021 07:45 9,9 C 1012,7 hPa 0,0 l/m 0,0 km/h (0 Bft) SO 135 10 min 32 W/m 3,2 km/h (1 Bft)
19.09.2021 06:45 10,1 C 1012,5 hPa 0,0 l/m 1,6 km/h (1 Bft) SO 135 0 min 0 W/m 3,2 km/h (1 Bft)
19.09.2021 05:45 10,7 C 1012,2 hPa 0,0 l/m 3,2 km/h (1 Bft) SW 225 0 min 0 W/m 4,8 km/h (1 Bft)
19.09.2021 04:45 11,8 C 1012,0 hPa 0,0 l/m 1,6 km/h (1 Bft) SW 225 0 min 0 W/m 3,2 km/h (1 Bft)
19.09.2021 03:45 12,3 C 1012,4 hPa 0,0 l/m 1,6 km/h (1 Bft) SO 135 0 min 0 W/m 9,7 km/h (2 Bft)
19.09.2021 02:45 13,2 C 1012,8 hPa 0,0 l/m 3,2 km/h (1 Bft) S-SW 202 0 min 0 W/m 8,0 km/h (2 Bft)
19.09.2021 01:45 10,6 C 1013,4 hPa 0,0 l/m 1,6 km/h (1 Bft) O-SO 112 0 min 0 W/m 3,2 km/h (1 Bft)
19.09.2021 00:45 11,1 C 1013,5 hPa 0,0 l/m 1,6 km/h (1 Bft) O-SO 112 0 min 0 W/m 4,8 km/h (1 Bft)
18.09.2021 23:45 11,4 C 1013,5 hPa 0,0 l/m 1,6 km/h (1 Bft) O 90 0 min 0 W/m 4,8 km/h (1 Bft)
18.09.2021 22:45 11,8 C 1014,0 hPa 0,0 l/m 0,0 km/h (0 Bft) O 90 0 min 0 W/m 3,2 km/h (1 Bft)
18.09.2021 21:45 12,2 C 1014,3 hPa 0,0 l/m 1,6 km/h (1 Bft) O 90 0 min 0 W/m 3,2 km/h (1 Bft)
18.09.2021 20:45 13,4 C 1014,1 hPa 0,0 l/m 0,0 km/h (0 Bft) N 0 0 min 0 W/m 0,0 km/h (0 Bft)
18.09.2021 19:45 14,9 C 1013,7 hPa 0,0 l/m 0,0 km/h (0 Bft) O 90 0 min 0 W/m 3,2 km/h (1 Bft)
18.09.2021 18:45 20,2 C 1013,6 hPa 0,0 l/m 0,0 km/h (0 Bft) N-NW 337 40 min 25 W/m 1,6 km/h (1 Bft)
18.09.2021 17:45 22,5 C 1013,7 hPa 0,0 l/m 3,2 km/h (1 Bft) NW 315 60 min 278 W/m 6,4 km/h (2 Bft)
18.09.2021 16:45 22,1 C 1014,2 hPa 0,0 l/m 4,8 km/h (1 Bft) NW 315 60 min 260 W/m 12,9 km/h (3 Bft)
18.09.2021 15:45 23,3 C 1014,5 hPa 0,0 l/m 4,8 km/h (1 Bft) NW 315 60 min 592 W/m 11,3 km/h (2 Bft)
18.09.2021 14:45 22,7 C 1014,9 hPa 0,0 l/m 1,6 km/h (1 Bft) N 360 60 min 652 W/m 14,5 km/h (3 Bft)
18.09.2021 13:45 22,0 C 1015,4 hPa 0,0 l/m 1,6 km/h (1 Bft) SO 135 60 min 564 W/m 8,0 km/h (2 Bft)
18.09.2021 12:45 20,7 C 1015,7 hPa 0,0 l/m 3,2 km/h (1 Bft) N 360 60 min 589 W/m 8,0 km/h (2 Bft)
18.09.2021 11:45 19,2 C 1016,2 hPa 0,0 l/m 3,2 km/h (1 Bft) O 90 60 min 573 W/m 11,3 km/h (2 Bft)
18.09.2021 10:45 17,7 C 1016,3 hPa 0,0 l/m 3,2 km/h (1 Bft) N 360 45 min 524 W/m 9,7 km/h (2 Bft)
18.09.2021 10:00 15,9 C 1016,2 hPa 0,0 l/m 0,0 km/h (0 Bft) S-SW 202 0 min 396 W/m 1,6 km/h (1 Bft)
_ Min-Zeit 07:20 05:30 - 09:45 - - - - 09:45
Minimum _ 9,6 C 1011,9 hPa - 0,0 km/h (0 Bft) - - - - 0,0 km/h (0 Bft)
_ Max-Zeit 15:45 11:05 09:45 13:15 - - 09:40 13:20 13:15
Maximum _ 23,3 C 1016,4 hPa 0,0 l/m 9,7 km/h
N (2 Bft)
- - 5 min 686 W/m 19,3 km/h
N (3 Bft)
Durchschnitt _ 15,4 C 1014,1 hPa #0,0 l/m 1,6 km/h (1 Bft) NW - #45 min. 109 W/m 5,4 km/h (1 Bft)